Time;durP1;ratioP1;P1;durP2;ratioP2;P2;SDS_P1;SDS_P2;PMS_P1;PMS_P2;Temp;Humidity;BMP_temperature;BMP_pressure;BME280_temperature;BME280_humidity;BME280_pressure;Samples;Min_cycle;Max_cycle;Signal;HPM_P1;HPM_P2
2022/03/06 00:03:44;;;;;;;13.02;6.00;;;;;;;-0.52;56.17;100281.81;12191509;19;20067;-81
2022/03/06 00:07:46;;;;;;;12.45;5.32;;;;;;;-0.54;56.54;100278.41;12238650;19;20018;-81
2022/03/06 00:11:48;;;;;;;12.43;5.57;;;;;;;-0.56;56.40;100275.03;12261237;19;20017;-80
2022/03/06 00:15:49;;;;;;;11.33;5.37;;;;;;;-0.56;56.15;100275.03;12243138;19;20081;-81
2022/03/06 00:19:51;;;;;;;11.90;5.63;;;;;;;-0.55;56.57;100270.47;12255341;19;19999;-81
2022/03/06 00:23:53;;;;;;;9.43;5.20;;;;;;;-0.53;56.50;100277.41;12217726;19;20760;-80
2022/03/06 00:27:55;;;;;;;12.63;6.07;;;;;;;-0.48;57.42;100283.19;12184886;19;20010;-78
2022/03/06 00:31:56;;;;;;;12.35;6.07;;;;;;;-0.40;57.27;100284.19;12202702;19;20014;-78
2022/03/06 00:35:58;;;;;;;12.53;5.70;;;;;;;-0.29;56.39;100282.00;12202164;19;20074;-80
2022/03/06 00:40:00;;;;;;;10.10;5.88;;;;;;;-0.13;56.20;100283.88;12177960;19;20070;-78
2022/03/06 00:44:03;;;;;;;12.60;6.07;;;;;;;0.00;56.02;100288.81;12205152;19;20035;-80
2022/03/06 00:48:05;;;;;;;12.95;5.85;;;;;;;0.10;55.84;100285.91;12211184;19;20074;-79
2022/03/06 00:52:07;;;;;;;9.07;5.28;;;;;;;0.17;55.70;100287.75;12174828;19;20009;-80
2022/03/06 00:56:09;;;;;;;9.02;5.03;;;;;;;0.21;55.85;100288.28;12189673;19;20007;-80
2022/03/06 01:00:11;;;;;;;10.10;5.05;;;;;;;0.25;56.36;100295.03;12201030;19;20515;-78
2022/03/06 01:04:13;;;;;;;12.23;5.40;;;;;;;0.30;55.86;100284.53;12183330;19;20098;-81
2022/03/06 01:08:15;;;;;;;11.52;5.90;;;;;;;0.38;56.04;100284.50;12202920;19;20259;-80
2022/03/06 01:12:18;;;;;;;9.85;4.32;;;;;;;0.45;55.76;100282.81;12204086;19;20006;-80
2022/03/06 01:16:20;;;;;;;9.60;4.82;;;;;;;0.56;55.59;100286.16;12184849;19;20010;-79
2022/03/06 01:20:23;;;;;;;9.55;4.00;;;;;;;0.67;55.44;100280.38;12200490;19;20014;-80
2022/03/06 01:24:25;;;;;;;10.48;4.70;;;;;;;0.82;55.26;100285.91;12176159;19;20022;-81
2022/03/06 01:28:27;;;;;;;10.75;4.95;;;;;;;0.95;55.48;100290.78;12198460;19;20526;-81
2022/03/06 01:32:28;;;;;;;10.45;4.88;;;;;;;1.06;54.92;100282.25;12205079;19;20002;-81
2022/03/06 01:36:31;;;;;;;11.43;5.38;;;;;;;1.20;55.00;100283.41;12183725;19;20010;-81
2022/03/06 01:40:33;;;;;;;7.75;4.63;;;;;;;1.27;54.86;100271.63;12198203;19;20013;-81
2022/03/06 01:44:34;;;;;;;10.73;5.25;;;;;;;1.33;54.71;100273.63;12189306;19;20077;-81
2022/03/06 01:48:36;;;;;;;10.43;4.68;;;;;;;1.36;54.50;100278.69;12174707;19;20015;-81
2022/03/06 01:52:40;;;;;;;12.07;5.07;;;;;;;1.37;54.64;100274.13;12177780;19;20010;-81
2022/03/06 01:56:42;;;;;;;9.70;4.90;;;;;;;1.35;54.00;100268.88;12200642;19;20070;-81
2022/03/06 02:00:49;;;;;;;9.20;4.15;;;;;;;1.32;54.02;100266.50;12172948;19;20425;-81
2022/03/06 02:04:51;;;;;;;11.68;4.55;;;;;;;1.29;54.20;100266.88;12201533;19;20010;-80
2022/03/06 02:08:53;;;;;;;10.18;4.72;;;;;;;1.23;54.59;100264.88;12206207;19;20102;-81
2022/03/06 02:12:55;;;;;;;9.20;4.75;;;;;;;1.13;54.42;100262.38;12172886;19;20062;-81
2022/03/06 02:16:56;;;;;;;12.68;5.13;;;;;;;1.08;54.58;100264.78;12199849;19;20011;-81
2022/03/06 02:20:58;;;;;;;9.90;5.00;;;;;;;0.97;54.55;100256.19;12219747;19;20676;-81
2022/03/06 02:25:04;;;;;;;13.05;5.43;;;;;;;0.88;54.64;100260.81;12191145;19;20136;-79
2022/03/06 02:29:05;;;;;;;11.18;4.78;;;;;;;0.84;54.54;100256.75;12211581;19;20010;-80
2022/03/06 02:33:09;;;;;;;11.43;4.95;;;;;;;0.78;54.70;100263.72;12214688;19;20006;-80
2022/03/06 02:37:12;;;;;;;8.13;4.60;;;;;;;0.70;55.30;100257.50;12195028;19;20078;-80
2022/03/06 02:41:14;;;;;;;;;;;;;;;0.60;55.32;100260.41;12216815;19;20023;-82
2022/03/06 02:45:27;;;;;;;11.95;5.07;;;;;;;0.49;55.63;100268.91;12203754;19;20385;-81
2022/03/06 02:49:29;;;;;;;9.98;5.20;;;;;;;0.35;55.83;100259.59;12193875;19;20019;-80
2022/03/06 02:53:30;;;;;;;8.70;4.72;;;;;;;0.21;56.24;100261.19;12211400;19;20077;-79
2022/03/06 02:57:32;;;;;;;9.50;4.40;;;;;;;0.11;55.69;100265.91;12184446;19;20070;-80
2022/03/06 03:01:39;;;;;;;6.70;4.00;;;;;;;-0.03;56.18;100262.88;12208594;19;20011;-80
2022/03/06 03:05:41;;;;;;;10.20;4.78;;;;;;;-0.11;56.20;100260.19;12210425;19;20010;-78
2022/03/06 03:09:43;;;;;;;11.40;5.70;;;;;;;-0.19;56.38;100254.75;12184070;19;20010;-80
2022/03/06 03:13:45;;;;;;;6.63;3.37;;;;;;;-0.32;56.53;100257.97;12209457;19;20006;-79
2022/03/06 03:17:46;;;;;;;8.30;4.47;;;;;;;-0.37;56.77;100256.78;12202490;19;20623;-81
2022/03/06 03:21:48;;;;;;;11.13;4.47;;;;;;;-0.42;56.86;100265.41;12182137;19;20014;-81
2022/03/06 03:25:50;;;;;;;10.68;5.10;;;;;;;-0.49;57.12;100267.09;12204085;19;20081;-80
2022/03/06 03:29:51;;;;;;;10.32;4.55;;;;;;;-0.51;57.19;100264.53;12200566;19;20397;-78
2022/03/06 03:33:53;;;;;;;8.40;4.57;;;;;;;-0.49;57.49;100272.50;12180192;19;20017;-80
2022/03/06 03:37:54;;;;;;;8.45;4.32;;;;;;;-0.41;57.67;100279.81;12210750;19;20455;-80
2022/03/06 03:41:56;;;;;;;8.90;4.60;;;;;;;-0.35;57.39;100273.72;12206104;19;20062;-78
2022/03/06 03:45:58;;;;;;;9.68;4.72;;;;;;;-0.34;57.57;100280.81;12172348;19;20066;-78
2022/03/06 03:50:00;;;;;;;9.15;5.53;;;;;;;-0.39;57.80;100288.59;12204434;19;20035;-80
2022/03/06 03:54:02;;;;;;;9.93;5.67;;;;;;;-0.46;57.72;100291.97;12190099;19;20003;-78
2022/03/06 03:58:04;;;;;;;10.53;4.40;;;;;;;-0.54;57.85;100296.50;12186732;19;20113;-78
2022/03/06 04:02:06;;;;;;;8.40;4.35;;;;;;;-0.61;57.73;100290.09;12198347;19;20690;-81
2022/03/06 04:06:08;;;;;;;13.43;4.85;;;;;;;-0.68;58.00;100284.50;12195468;19;20010;-81
2022/03/06 04:10:10;;;;;;;10.02;4.68;;;;;;;-0.71;57.96;100292.94;12181057;19;20006;-81
2022/03/06 04:14:12;;;;;;;8.80;4.57;;;;;;;-0.77;58.64;100307.13;12202762;19;20086;-78
2022/03/06 04:18:14;;;;;;;10.27;4.78;;;;;;;-0.83;58.92;100311.34;12190399;19;20007;-80
2022/03/06 04:22:15;;;;;;;10.15;5.20;;;;;;;-0.85;59.11;100307.09;12173540;19;20720;-80
2022/03/06 04:26:19;;;;;;;10.63;4.72;;;;;;;-0.90;59.09;100318.41;12195838;19;20442;-79
2022/03/06 04:30:21;;;;;;;9.80;4.72;;;;;;;-0.99;59.74;100317.50;12193066;19;20024;-80
2022/03/06 04:34:25;;;;;;;9.35;4.45;;;;;;;-1.07;59.69;100322.91;12201219;19;20054;-80
2022/03/06 04:38:27;;;;;;;8.45;4.25;;;;;;;-1.07;59.90;100324.75;12199417;19;20100;-80
2022/03/06 04:42:30;;;;;;;10.18;5.15;;;;;;;-1.07;60.31;100324.75;12177187;19;20014;-79
2022/03/06 04:46:31;;;;;;;11.60;4.90;;;;;;;-1.03;60.06;100329.69;12201564;19;20027;-80
2022/03/06 04:50:33;;;;;;;8.10;3.80;;;;;;;-0.98;60.01;100330.06;12198941;19;20006;-80
2022/03/06 04:54:35;;;;;;;8.18;3.85;;;;;;;-0.87;59.96;100338.88;12179330;19;20086;-81
2022/03/06 04:58:37;;;;;;;10.32;4.45;;;;;;;-0.69;60.28;100336.91;12199201;19;20023;-80
2022/03/06 05:02:38;;;;;;;7.30;4.10;;;;;;;-0.52;60.12;100335.09;12205713;19;20112;-80
2022/03/06 05:06:40;;;;;;;9.85;4.70;;;;;;;-0.39;59.96;100329.19;12174010;19;20024;-80
2022/03/06 05:10:42;;;;;;;9.38;4.93;;;;;;;-0.33;59.84;100337.53;12203469;19;20054;-80
2022/03/06 05:14:44;;;;;;;9.63;4.53;;;;;;;-0.26;59.69;100340.41;12194932;19;20758;-81
2022/03/06 05:18:45;;;;;;;8.80;5.35;;;;;;;-0.24;59.54;100328.41;12181095;19;20105;-80
2022/03/06 05:22:47;;;;;;;13.10;5.28;;;;;;;-0.25;59.21;100340.22;12193082;19;20007;-80
2022/03/06 05:26:49;;;;;;;9.93;5.07;;;;;;;-0.27;59.47;100333.28;12199267;19;20019;-79
2022/03/06 05:30:50;;;;;;;7.60;4.55;;;;;;;-0.26;59.42;100338.53;12174013;19;20082;-79
2022/03/06 05:34:52;;;;;;;10.40;4.45;;;;;;;-0.19;59.59;100344.13;12195695;19;20007;-78
2022/03/06 05:38:54;;;;;;;9.15;4.47;;;;;;;-0.14;59.63;100349.91;12195912;19;20018;-78
2022/03/06 05:42:55;;;;;;;8.48;5.05;;;;;;;-0.08;59.28;100351.94;12176955;19;20019;-79
2022/03/06 05:46:57;;;;;;;8.70;4.40;;;;;;;-0.03;59.43;100355.00;12190154;19;20014;-78
2022/03/06 05:50:59;;;;;;;10.48;4.47;;;;;;;0.05;59.44;100358.72;12200860;19;20090;-78
2022/03/06 05:55:01;;;;;;;9.00;4.63;;;;;;;0.06;59.00;100361.28;12174069;19;20010;-79
2022/03/06 05:59:03;;;;;;;9.77;5.05;;;;;;;0.04;59.82;100363.31;12198320;19;20492;-80
2022/03/06 06:03:04;;;;;;;8.53;4.33;;;;;;;0.09;59.22;100360.06;12188850;19;20027;-78
2022/03/06 06:07:07;;;;;;;9.73;5.13;;;;;;;0.18;58.85;100368.06;12172574;19;20031;-78
2022/03/06 06:11:08;;;;;;;8.73;4.05;;;;;;;0.27;58.57;100363.50;12193690;19;20090;-80
2022/03/06 06:15:11;;;;;;;6.93;4.30;;;;;;;0.38;58.55;100368.53;12194689;19;20460;-80
2022/03/06 06:19:13;;;;;;;9.98;5.38;;;;;;;0.50;57.84;100381.75;12172157;19;20051;-78
2022/03/06 06:23:16;;;;;;;11.30;5.10;;;;;;;0.67;57.44;100383.44;12198693;19;20060;-78
2022/03/06 06:27:18;;;;;;;9.77;4.35;;;;;;;0.76;57.36;100387.00;12200525;19;20034;-80
2022/03/06 06:31:24;;;;;;;10.93;5.45;;;;;;;0.88;56.99;100389.16;12177897;19;20003;-81
2022/03/06 06:35:26;;;;;;;9.98;4.45;;;;;;;0.98;57.01;100398.97;12198718;19;20031;-80
2022/03/06 06:39:27;;;;;;;7.75;4.28;;;;;;;1.06;56.91;100393.53;12178784;19;20006;-81
2022/03/06 06:43:29;;;;;;;13.57;5.13;;;;;;;1.13;56.49;100400.81;12199565;19;20059;-80
2022/03/06 06:47:31;;;;;;;8.52;4.80;;;;;;;1.22;55.97;100398.94;12198377;19;20021;-82
2022/03/06 06:51:33;;;;;;;10.90;4.90;;;;;;;1.33;56.13;100405.84;12178798;19;20074;-80
2022/03/06 06:55:35;;;;;;;9.10;4.63;;;;;;;1.43;55.62;100406.50;12192860;19;20074;-80
2022/03/06 06:59:36;;;;;;;7.18;3.97;;;;;;;1.52;55.49;100410.03;12202257;19;20006;-81
2022/03/06 07:03:38;;;;;;;11.05;5.25;;;;;;;1.64;55.08;100407.75;12189092;19;20023;-78
2022/03/06 07:07:40;;;;;;;8.18;4.28;;;;;;;1.79;55.24;100408.69;12206461;19;20066;-81
2022/03/06 07:11:41;;;;;;;8.35;4.60;;;;;;;1.88;54.42;100412.22;12206717;19;20066;-80
2022/03/06 07:15:43;;;;;;;11.52;5.07;;;;;;;1.96;53.78;100414.88;12183773;19;20014;-81
2022/03/06 07:19:45;;;;;;;8.88;5.10;;;;;;;2.04;53.95;100418.38;12202613;19;20090;-81
2022/03/06 07:23:46;;;;;;;11.15;4.82;;;;;;;2.15;53.65;100427.16;12206826;19;20074;-81
2022/03/06 07:27:48;;;;;;;27.20;12.23;;;;;;;2.21;53.38;100419.13;12188699;19;20013;-78
2022/03/06 07:31:50;;;;;;;11.95;6.25;;;;;;;2.33;52.92;100427.72;12193885;19;20094;-79
2022/03/06 07:35:52;;;;;;;10.27;5.60;;;;;;;2.36;52.39;100421.91;12186079;19;20006;-80
2022/03/06 07:39:53;;;;;;;8.93;4.60;;;;;;;2.40;51.48;100416.94;12182995;19;20010;-79
2022/03/06 07:43:55;;;;;;;9.48;4.80;;;;;;;2.45;51.74;100415.38;12195202;19;20429;-79
2022/03/06 07:47:57;;;;;;;9.07;5.03;;;;;;;2.47;51.73;100417.94;12201723;19;20484;-78
2022/03/06 07:51:59;;;;;;;8.98;4.40;;;;;;;2.54;51.38;100412.59;12184363;19;20086;-78
2022/03/06 07:56:00;;;;;;;8.95;5.22;;;;;;;2.64;51.06;100424.06;12209051;19;20010;-79
2022/03/06 08:00:06;;;;;;;7.65;4.28;;;;;;;2.71;50.74;100423.16;12206207;19;20500;-79
2022/03/06 08:04:09;;;;;;;11.15;5.13;;;;;;;2.78;50.77;100430.59;12192191;19;20002;-80
2022/03/06 08:08:12;;;;;;;8.82;4.55;;;;;;;2.76;50.58;100425.31;12203316;19;20010;-79
2022/03/06 08:12:23;;;;;;;8.90;4.78;;;;;;;2.85;50.25;100428.81;12211512;19;20007;-81
2022/03/06 08:16:25;;;;;;;8.98;4.75;;;;;;;2.97;49.78;100430.03;12206370;19;20007;-80
2022/03/06 08:20:28;;;;;;;;;;;;;;;3.18;49.66;100432.91;12225857;19;20007;-81
2022/03/06 08:24:31;;;;;;;9.82;4.88;;;;;;;3.32;48.27;100433.09;12207595;19;19921;-81
2022/03/06 08:28:32;;;;;;;6.13;3.22;;;;;;;3.50;47.69;100443.63;12236435;19;20098;-81
2022/03/06 08:32:34;;;;;;;9.75;4.63;;;;;;;3.75;47.42;100438.69;12227245;19;19999;-81
2022/03/06 08:36:37;;;;;;;8.98;5.35;;;;;;;3.95;47.15;100437.06;12203622;19;20026;-81
2022/03/06 08:40:39;;;;;;;9.63;5.22;;;;;;;3.86;46.33;100441.78;12228049;19;20050;-81
2022/03/06 08:44:42;;;;;;;8.02;5.00;;;;;;;3.89;46.01;100441.41;12217544;19;20002;-81
2022/03/06 08:48:44;;;;;;;8.35;4.82;;;;;;;3.91;45.38;100441.22;12192891;19;20047;-80
2022/03/06 08:52:46;;;;;;;7.55;4.70;;;;;;;4.06;45.24;100450.22;12223708;19;20037;-81
2022/03/06 08:56:48;;;;;;;11.05;5.40;;;;;;;4.26;44.83;100447.72;12228459;19;20015;-81
2022/03/06 09:00:50;;;;;;;9.50;5.10;;;;;;;4.44;44.68;100447.28;12203003;19;20018;-82
2022/03/06 09:04:52;;;;;;;11.32;5.70;;;;;;;4.51;43.18;100445.44;12221852;19;20006;-82
2022/03/06 09:08:54;;;;;;;8.52;4.05;;;;;;;4.58;43.69;100451.00;12211466;19;20035;-82
2022/03/06 09:13:00;;;;;;;6.93;5.43;;;;;;;4.83;42.78;100442.41;12201625;19;20006;-82
2022/03/06 09:17:02;;;;;;;9.35;5.30;;;;;;;4.85;42.27;100457.53;12204773;19;20037;-82
2022/03/06 09:21:04;;;;;;;11.10;5.88;;;;;;;4.96;42.53;100448.78;12213159;19;20042;-82
2022/03/06 09:25:07;;;;;;;12.67;5.63;;;;;;;5.14;41.94;100447.47;12205776;19;20096;-81
2022/03/06 09:29:09;;;;;;;8.10;5.07;;;;;;;5.38;41.69;100454.34;12217676;19;20010;-82
2022/03/06 09:33:11;;;;;;;9.53;4.80;;;;;;;5.53;41.06;100448.75;12217343;19;20017;-81
2022/03/06 09:37:14;;;;;;;8.48;5.00;;;;;;;5.61;40.57;100446.72;12194118;19;20102;-82
2022/03/06 09:41:25;;;;;;;8.48;4.45;;;;;;;5.80;40.35;100439.69;12241615;19;20016;-81
2022/03/06 09:45:32;;;;;;;10.32;5.20;;;;;;;5.98;40.11;100443.75;12198306;19;20011;-82
2022/03/06 09:49:34;;;;;;;8.85;5.78;;;;;;;6.09;39.61;100446.75;12227514;19;20037;-83
2022/03/06 09:53:36;;;;;;;8.55;5.18;;;;;;;6.23;38.61;100444.91;12230470;19;20007;-81
2022/03/06 09:57:38;;;;;;;10.57;6.10;;;;;;;6.40;38.37;100448.13;12192693;19;20010;-81
2022/03/06 10:01:40;;;;;;;8.93;5.60;;;;;;;6.69;38.45;100440.56;12219884;19;20022;-83
2022/03/06 10:05:42;;;;;;;6.72;4.50;;;;;;;6.43;36.34;100444.13;12210290;19;20007;-82
2022/03/06 10:09:45;;;;;;;10.10;5.30;;;;;;;6.42;37.35;100439.69;12191506;19;20778;-82
2022/03/06 10:13:46;;;;;;;;;;;;;;;6.62;36.31;100438.66;12213398;19;20010;-80
2022/03/06 10:18:00;;;;;;;8.27;5.22;;;;;;;6.69;36.70;100435.94;12214556;19;19918;-81
2022/03/06 10:22:11;;;;;;;7.60;5.60;;;;;;;6.55;35.68;100442.47;12184768;19;20014;-83
2022/03/06 10:26:25;;;;;;;8.52;5.28;;;;;;;6.50;36.68;100454.03;12197223;19;20002;-81
2022/03/06 10:30:34;;;;;;;9.43;5.90;;;;;;;6.31;35.99;100452.94;12190689;19;20006;-80
2022/03/06 10:34:38;;;;;;;9.10;5.50;;;;;;;6.26;36.45;100463.66;12199531;19;20692;-80
2022/03/06 10:38:40;;;;;;;11.15;5.95;;;;;;;5.97;36.53;100456.59;12225996;19;20031;-80
2022/03/06 10:42:46;;;;;;;9.85;5.63;;;;;;;5.75;37.33;100460.47;12194123;19;20014;-82
2022/03/06 10:47:03;;;;;;;12.55;5.47;;;;;;;6.01;36.57;100443.34;12205038;19;20090;-80
2022/03/06 10:51:11;;;;;;;9.77;6.00;;;;;;;6.30;36.60;100434.81;12216295;19;20023;-81
2022/03/06 10:55:12;;;;;;;11.00;6.22;;;;;;;6.34;36.32;100433.38;12182011;19;20027;-81
2022/03/06 10:59:18;;;;;;;10.27;5.95;;;;;;;6.54;35.94;100429.81;12209879;19;20552;-82
2022/03/06 11:03:21;;;;;;;8.25;5.82;;;;;;;6.57;35.62;100433.00;12204561;19;20009;-81
2022/03/06 11:07:28;;;;;;;10.98;6.10;;;;;;;6.81;35.84;100425.19;12209846;19;20003;-81
2022/03/06 11:11:33;;;;;;;8.63;6.30;;;;;;;6.76;35.27;100414.06;12222930;19;20026;-81
2022/03/06 11:15:36;;;;;;;9.63;5.78;;;;;;;7.13;35.21;100411.69;12217597;19;20011;-81
2022/03/06 11:19:39;;;;;;;10.52;5.95;;;;;;;7.38;35.26;100418.22;12257784;19;20007;-81
2022/03/06 11:23:50;;;;;;;9.65;5.32;;;;;;;7.72;35.08;100417.03;12249527;19;20003;-82
2022/03/06 11:28:09;;;;;;;10.60;6.15;;;;;;;8.06;34.42;100408.66;12199577;19;20017;-80
2022/03/06 11:32:10;;;;;;;9.15;6.07;;;;;;;7.76;34.01;100401.00;12228781;19;20017;-81
2022/03/06 11:36:21;;;;;;;8.05;6.05;;;;;;;8.00;33.83;100391.16;12227109;19;20022;-81
2022/03/06 11:40:45;;;;;;;10.05;6.38;;;;;;;7.97;33.67;100392.47;12183428;19;20070;-81
2022/03/06 11:44:49;;;;;;;9.98;5.88;;;;;;;8.11;33.69;100384.16;12212685;19;20017;-80
2022/03/06 11:48:51;;;;;;;7.43;5.55;;;;;;;8.03;32.62;100374.28;12188651;19;20396;-81
2022/03/06 11:52:53;;;;;;;10.70;5.93;;;;;;;8.04;31.91;100381.47;12216711;19;20111;-79
2022/03/06 11:56:56;;;;;;;8.38;5.68;;;;;;;8.30;33.25;100374.09;12226971;19;20049;-81
2022/03/06 12:00:57;;;;;;;10.23;5.63;;;;;;;8.22;32.01;100367.81;12192910;19;20014;-81
2022/03/06 12:04:59;;;;;;;10.98;6.28;;;;;;;8.39;32.23;100368.19;12207223;19;20517;-82
2022/03/06 12:09:10;;;;;;;8.00;6.07;;;;;;;8.67;31.37;100356.75;12220952;19;20764;-81
2022/03/06 12:13:21;;;;;;;8.82;6.32;;;;;;;9.34;32.40;100353.38;12178005;19;20428;-79
2022/03/06 12:17:36;;;;;;;9.65;6.40;;;;;;;10.01;31.16;100353.38;12200720;19;20009;-80
2022/03/06 12:21:38;;;;;;;7.90;5.68;;;;;;;10.40;31.91;100340.97;12180083;19;20070;-79
2022/03/06 12:25:49;;;;;;;13.63;6.28;;;;;;;10.59;31.11;100335.38;12206677;19;20421;-80
2022/03/06 12:29:56;;;;;;;10.02;6.85;;;;;;;10.84;29.61;100330.50;12220308;19;20010;-82
2022/03/06 12:33:59;;;;;;;9.15;6.60;;;;;;;10.90;30.70;100328.72;12195007;19;20027;-80
2022/03/06 12:38:05;;;;;;;7.40;5.85;;;;;;;11.24;29.60;100332.50;12237518;19;20365;-82
2022/03/06 12:42:07;;;;;;;10.38;7.50;;;;;;;11.49;28.62;100331.41;12218858;19;20013;-82
2022/03/06 12:46:09;;;;;;;11.50;7.57;;;;;;;12.43;29.22;100325.53;12198439;19;20010;-81
2022/03/06 12:50:12;;;;;;;10.05;7.38;;;;;;;13.07;28.24;100314.97;12210091;19;20013;-81
2022/03/06 12:54:24;;;;;;;13.35;6.95;;;;;;;13.22;27.18;100319.88;12221530;19;20007;-82
2022/03/06 12:58:41;;;;;;;9.18;7.38;;;;;;;12.63;26.83;100317.59;12215696;19;20444;-82
2022/03/06 13:02:48;;;;;;;9.10;6.22;;;;;;;13.23;26.77;100311.31;12208242;19;20014;-83
2022/03/06 13:06:50;;;;;;;9.32;6.90;;;;;;;12.02;26.67;100302.69;12196058;19;20026;-83
2022/03/06 13:10:52;;;;;;;9.00;6.67;;;;;;;11.07;27.56;100313.13;12229513;19;20006;-80
2022/03/06 13:14:55;;;;;;;9.00;6.40;;;;;;;11.71;27.90;100296.53;12220357;19;20113;-78
2022/03/06 13:18:58;;;;;;;9.73;7.07;;;;;;;11.86;27.08;100296.88;12209584;19;20010;-81
2022/03/06 13:23:01;;;;;;;11.55;6.88;;;;;;;12.17;27.47;100296.63;12217415;19;20020;-82
2022/03/06 13:27:03;;;;;;;7.72;6.55;;;;;;;11.51;27.90;100296.13;12218633;19;20017;-81
2022/03/06 13:31:04;;;;;;;9.50;6.57;;;;;;;11.02;28.13;100303.88;12185691;19;20031;-79
2022/03/06 13:35:08;;;;;;;9.57;6.97;;;;;;;10.20;29.42;100310.09;12209198;19;20465;-81
2022/03/06 13:39:19;;;;;;;9.23;6.30;;;;;;;9.77;29.61;100308.41;12214573;19;20007;-81
2022/03/06 13:43:32;;;;;;;11.40;7.57;;;;;;;8.82;29.99;100300.63;12189562;19;20010;-79
2022/03/06 13:47:39;;;;;;;11.63;7.95;;;;;;;9.24;30.19;100292.56;12201516;19;20402;-80
2022/03/06 13:51:42;;;;;;;14.00;6.45;;;;;;;9.45;30.02;100288.50;12182657;19;20764;-82
2022/03/06 13:55:54;;;;;;;8.00;6.10;;;;;;;9.36;30.54;100297.06;12207983;19;20006;-82
2022/03/06 13:59:56;;;;;;;13.95;6.22;;;;;;;9.01;30.93;100299.59;12200437;19;20019;-83
2022/03/06 14:04:04;;;;;;;7.82;5.60;;;;;;;8.73;30.52;100294.56;12183198;19;20039;-82
2022/03/06 14:08:52;;;;;;;8.10;5.43;;;;;;;8.61;31.38;100288.13;12211635;19;20122;-82
2022/03/06 14:13:35;;;;;;;8.75;5.60;;;;;;;8.77;31.32;100289.47;12193606;19;20015;-81
2022/03/06 14:17:51;;;;;;;;;;;;;;;9.24;30.69;100287.06;12220198;19;20118;-82
2022/03/06 14:21:53;;;;;;;9.63;6.07;;;;;;;9.48;30.09;100280.63;12193473;19;19932;-82
2022/03/06 14:25:54;;;;;;;9.25;6.05;;;;;;;9.39;30.86;100276.50;12210947;19;20090;-81
2022/03/06 14:29:56;;;;;;;10.40;6.57;;;;;;;8.95;31.34;100292.22;12215721;19;20011;-81
2022/03/06 14:33:58;;;;;;;11.70;6.50;;;;;;;8.45;31.67;100306.03;12196702;19;20010;-81
2022/03/06 14:38:00;;;;;;;11.17;6.27;;;;;;;7.68;32.58;100311.56;12227737;19;20003;-83
2022/03/06 14:42:04;;;;;;;9.45;6.80;;;;;;;7.75;32.98;100306.03;12217214;19;20010;-83
2022/03/06 14:46:08;;;;;;;10.02;6.40;;;;;;;7.87;33.29;100295.22;12195370;19;20062;-82
2022/03/06 14:50:10;;;;;;;10.00;6.88;;;;;;;8.03;33.07;100297.44;12221863;19;20006;-82
2022/03/06 14:59:07;;;;;;;10.73;6.57;;;;;;;7.78;33.04;100299.28;12224673;19;20036;-82
2022/03/06 15:19:08;;;;;;;9.52;6.05;;;;;;;6.72;34.50;100306.81;12209460;19;20028;-82
2022/03/06 15:24:29;;;;;;;10.48;6.32;;;;;;;7.16;34.65;100307.13;12242748;19;20028;-86
2022/03/06 15:29:03;;;;;;;9.50;6.07;;;;;;;8.04;33.57;100293.63;12234153;19;20027;-80
2022/03/06 15:44:13;;;;;;;8.07;5.47;;;;;;;7.26;34.43;100313.03;12210157;19;20034;-82
2022/03/06 15:48:22;;;;;;;;;;;;;;;6.84;35.39;100310.59;12187278;19;20812;-80
2022/03/06 15:52:25;;;;;;;;;;;;;;;6.70;35.43;100314.41;12202010;19;20290;-81
2022/03/06 15:56:26;;;;;;;8.48;5.32;;;;;;;6.58;35.36;100316.94;12191918;19;19919;-80
2022/03/06 16:00:28;;;;;;;8.55;5.45;;;;;;;6.50;35.77;100313.56;12180993;19;20011;-80
2022/03/06 16:04:30;;;;;;;8.45;5.72;;;;;;;6.35;36.00;100317.34;12208669;19;20006;-80
2022/03/06 16:08:32;;;;;;;8.45;5.75;;;;;;;6.22;36.66;100311.88;12206530;19;20007;-80
2022/03/06 16:12:35;;;;;;;9.55;5.75;;;;;;;6.11;36.66;100328.91;12183696;19;20499;-80
2022/03/06 16:16:45;;;;;;;10.57;6.25;;;;;;;5.82;36.89;100322.69;12205736;19;20090;-78
2022/03/06 16:20:49;;;;;;;8.73;5.53;;;;;;;5.74;37.07;100324.78;12208821;19;20006;-79
2022/03/06 16:24:51;;;;;;;10.20;6.82;;;;;;;5.53;37.60;100325.75;12182003;19;20013;-79
2022/03/06 16:28:53;;;;;;;12.05;8.00;;;;;;;5.35;37.88;100321.69;12207346;19;20015;-80
2022/03/06 16:32:54;;;;;;;11.07;7.07;;;;;;;5.23;38.18;100334.22;12192883;19;20730;-79
2022/03/06 16:36:56;;;;;;;14.32;8.55;;;;;;;5.05;39.19;100342.13;12185986;19;20011;-81
2022/03/06 16:41:01;;;;;;;13.98;8.18;;;;;;;5.00;39.01;100343.59;12206505;19;20011;-79
2022/03/06 16:45:04;;;;;;;15.90;8.77;;;;;;;4.92;39.64;100360.13;12195416;19;20548;-79
2022/03/06 16:49:07;;;;;;;11.60;8.07;;;;;;;4.72;39.51;100348.19;12188183;19;20513;-77
2022/03/06 16:53:12;;;;;;;12.20;8.10;;;;;;;4.49;40.39;100349.31;12201576;19;20088;-80
2022/03/06 16:57:15;;;;;;;12.00;7.88;;;;;;;4.46;40.25;100355.16;12201610;19;20279;-78
2022/03/06 17:01:18;;;;;;;13.00;8.18;;;;;;;4.32;40.37;100364.25;12187369;19;20010;-80
2022/03/06 17:05:26;;;;;;;12.75;8.23;;;;;;;4.29;40.48;100361.91;12208099;19;20026;-79
2022/03/06 17:09:30;;;;;;;12.27;7.57;;;;;;;4.07;40.34;100363.78;12174544;19;20147;-80
2022/03/06 17:13:35;;;;;;;12.35;8.10;;;;;;;4.05;40.27;100372.16;12200046;19;20105;-78
2022/03/06 17:17:39;;;;;;;11.77;7.10;;;;;;;3.91;40.31;100375.78;12200070;19;20438;-78
2022/03/06 17:21:41;;;;;;;10.68;7.32;;;;;;;3.84;40.37;100377.59;12187883;19;20019;-79
2022/03/06 17:25:43;;;;;;;15.20;7.78;;;;;;;3.75;40.74;100381.44;12212539;19;20032;-80
2022/03/06 17:29:45;;;;;;;11.33;6.60;;;;;;;3.70;40.72;100378.47;12213778;19;20017;-84
2022/03/06 17:33:46;;;;;;;10.25;6.18;;;;;;;3.65;40.67;100384.50;12187617;19;20823;-79
2022/03/06 17:37:48;;;;;;;10.25;6.13;;;;;;;3.62;40.98;100387.59;12211802;19;20018;-78
2022/03/06 17:41:50;;;;;;;8.40;5.78;;;;;;;3.66;40.77;100391.66;12213340;19;20018;-79
2022/03/06 17:45:52;;;;;;;8.60;5.80;;;;;;;3.68;40.61;100395.00;12179245;19;20040;-80
2022/03/06 17:49:55;;;;;;;8.73;5.90;;;;;;;3.70;40.88;100405.72;12208101;19;20558;-80
2022/03/06 17:53:58;;;;;;;6.82;5.18;;;;;;;3.61;40.84;100400.38;12199841;19;21282;-80
2022/03/06 17:58:00;;;;;;;9.50;5.65;;;;;;;3.61;41.14;100405.00;12177822;19;20083;-80
2022/03/06 18:02:02;;;;;;;8.82;5.82;;;;;;;3.61;41.08;100411.28;12205825;19;20068;-79
2022/03/06 18:06:04;;;;;;;6.27;3.53;;;;;;;3.63;41.02;100416.56;12200418;19;20010;-80
2022/03/06 18:10:07;;;;;;;11.57;5.45;;;;;;;3.67;40.91;100417.03;12182261;19;20002;-80
2022/03/06 18:14:11;;;;;;;9.38;5.30;;;;;;;3.59;41.08;100420.69;12206951;19;20010;-80
2022/03/06 18:18:14;;;;;;;7.32;5.28;;;;;;;3.52;41.67;100426.06;12199470;19;20003;-80
2022/03/06 18:22:19;;;;;;;10.18;5.70;;;;;;;3.39;42.12;100412.22;12186290;19;20007;-79
2022/03/06 18:26:23;;;;;;;9.33;5.67;;;;;;;3.31;42.20;100417.78;12198656;19;20047;-81
2022/03/06 18:30:29;;;;;;;9.68;5.63;;;;;;;3.26;42.50;100417.50;12185277;19;20035;-80
2022/03/06 18:34:31;;;;;;;7.13;5.28;;;;;;;3.22;42.36;100424.38;12199480;19;20013;-79
2022/03/06 18:38:35;;;;;;;9.00;5.47;;;;;;;3.24;41.92;100419.56;12210390;19;20027;-81
2022/03/06 18:42:39;;;;;;;8.80;5.68;;;;;;;3.24;41.92;100422.28;12183250;19;20010;-80
2022/03/06 18:46:41;;;;;;;10.13;5.77;;;;;;;3.26;42.22;100422.94;12197484;19;20457;-80
2022/03/06 18:50:44;;;;;;;11.65;5.35;;;;;;;3.20;42.56;100425.38;12210165;19;20087;-80
2022/03/06 18:54:46;;;;;;;8.57;5.65;;;;;;;3.20;42.59;100436.28;12186020;19;20011;-81
2022/03/06 18:58:51;;;;;;;8.23;5.35;;;;;;;3.18;42.93;100421.16;12198296;19;20011;-80
2022/03/06 19:02:53;;;;;;;9.13;6.20;;;;;;;3.11;43.63;100425.66;12210919;19;20015;-80
2022/03/06 19:06:54;;;;;;;11.38;7.47;;;;;;;3.07;43.49;100433.38;12185517;19;20006;-80
2022/03/06 19:10:56;;;;;;;9.52;6.35;;;;;;;3.08;43.56;100437.75;12216013;19;20078;-79
2022/03/06 19:14:58;;;;;;;11.27;7.00;;;;;;;3.07;43.68;100435.25;12208997;19;20661;-79
2022/03/06 19:19:00;;;;;;;10.93;6.70;;;;;;;3.00;43.84;100451.44;12185882;19;20010;-79
2022/03/06 19:23:01;;;;;;;11.05;6.57;;;;;;;2.90;43.85;100457.16;12205051;19;20499;-79